sensor_id;sensor_type;location;lat;lon;timestamp;pressure;altitude;pressure_sealevel;temperature;humidity
62948;BME280;51940;52.126;-0.994;2022-09-01T00:01:16;101301.39;;;13.60;76.31
62948;BME280;51940;52.126;-0.994;2022-09-01T00:03:48;101298.17;;;13.58;76.47
62948;BME280;51940;52.126;-0.994;2022-09-01T00:06:19;101295.20;;;13.55;76.67
62948;BME280;51940;52.126;-0.994;2022-09-01T00:08:51;101290.95;;;13.53;76.64
62948;BME280;51940;52.126;-0.994;2022-09-01T00:11:19;101287.39;;;13.52;76.75
62948;BME280;51940;52.126;-0.994;2022-09-01T00:13:45;101283.84;;;13.50;76.48
62948;BME280;51940;52.126;-0.994;2022-09-01T00:16:12;101283.37;;;13.47;76.66
62948;BME280;51940;52.126;-0.994;2022-09-01T00:18:40;101282.34;;;13.45;76.79
62948;BME280;51940;52.126;-0.994;2022-09-01T00:21:10;101287.20;;;13.44;76.69
62948;BME280;51940;52.126;-0.994;2022-09-01T00:23:37;101283.30;;;13.42;76.79
62948;BME280;51940;52.126;-0.994;2022-09-01T00:26:03;101280.44;;;13.41;76.87
62948;BME280;51940;52.126;-0.994;2022-09-01T00:28:28;101282.10;;;13.39;76.94
62948;BME280;51940;52.126;-0.994;2022-09-01T00:30:56;101280.04;;;13.36;76.99
62948;BME280;51940;52.126;-0.994;2022-09-01T00:33:22;101277.38;;;13.35;77.10
62948;BME280;51940;52.126;-0.994;2022-09-01T00:35:48;101276.33;;;13.33;77.02
62948;BME280;51940;52.126;-0.994;2022-09-01T00:38:13;101279.39;;;13.32;77.09
62948;BME280;51940;52.126;-0.994;2022-09-01T00:40:39;101279.09;;;13.30;77.17
62948;BME280;51940;52.126;-0.994;2022-09-01T00:43:13;101276.30;;;13.26;77.20
62948;BME280;51940;52.126;-0.994;2022-09-01T00:45:40;101273.84;;;13.24;77.14
62948;BME280;51940;52.126;-0.994;2022-09-01T00:48:06;101269.03;;;13.22;77.44
62948;BME280;51940;52.126;-0.994;2022-09-01T00:50:34;101265.33;;;13.19;77.44
62948;BME280;51940;52.126;-0.994;2022-09-01T00:53:01;101263.70;;;13.19;77.37
62948;BME280;51940;52.126;-0.994;2022-09-01T00:55:31;101261.96;;;13.16;77.41
62948;BME280;51940;52.126;-0.994;2022-09-01T00:58:00;101262.75;;;13.13;77.56
62948;BME280;51940;52.126;-0.994;2022-09-01T01:00:30;101263.55;;;13.10;77.62
62948;BME280;51940;52.126;-0.994;2022-09-01T01:02:57;101262.14;;;13.07;77.66
62948;BME280;51940;52.126;-0.994;2022-09-01T01:05:32;101261.29;;;13.05;77.69
62948;BME280;51940;52.126;-0.994;2022-09-01T01:07:59;101258.63;;;13.04;77.71
62948;BME280;51940;52.126;-0.994;2022-09-01T01:10:30;101257.91;;;13.04;77.72
62948;BME280;51940;52.126;-0.994;2022-09-01T01:12:57;101262.23;;;13.03;77.66
62948;BME280;51940;52.126;-0.994;2022-09-01T01:15:27;101259.61;;;12.99;77.81
62948;BME280;51940;52.126;-0.994;2022-09-01T01:17:53;101258.56;;;12.97;77.85
62948;BME280;51940;52.126;-0.994;2022-09-01T01:20:20;101258.11;;;12.94;78.04
62948;BME280;51940;52.126;-0.994;2022-09-01T01:23:26;101254.77;;;12.91;78.14
62948;BME280;51940;52.126;-0.994;2022-09-01T01:25:59;101252.31;;;12.88;78.21
62948;BME280;51940;52.126;-0.994;2022-09-01T01:28:29;101250.91;;;12.86;78.19
62948;BME280;51940;52.126;-0.994;2022-09-01T01:31:06;101249.86;;;12.85;78.21
62948;BME280;51940;52.126;-0.994;2022-09-01T01:33:44;101244.89;;;12.84;78.23
62948;BME280;51940;52.126;-0.994;2022-09-01T01:36:19;101243.66;;;12.82;78.32
62948;BME280;51940;52.126;-0.994;2022-09-01T01:38:55;101243.91;;;12.79;78.47
62948;BME280;51940;52.126;-0.994;2022-09-01T01:41:26;101240.05;;;12.75;78.75
62948;BME280;51940;52.126;-0.994;2022-09-01T01:43:51;101238.48;;;12.73;78.85
62948;BME280;51940;52.126;-0.994;2022-09-01T01:46:17;101237.25;;;12.71;78.82
62948;BME280;51940;52.126;-0.994;2022-09-01T01:48:43;101237.47;;;12.70;78.96
62948;BME280;51940;52.126;-0.994;2022-09-01T01:51:09;101235.33;;;12.69;79.06
62948;BME280;51940;52.126;-0.994;2022-09-01T01:53:37;101234.29;;;12.67;79.19
62948;BME280;51940;52.126;-0.994;2022-09-01T01:56:06;101235.58;;;12.65;79.34
62948;BME280;51940;52.126;-0.994;2022-09-01T01:58:33;101230.28;;;12.61;79.45
62948;BME280;51940;52.126;-0.994;2022-09-01T02:01:00;101229.29;;;12.58;79.64
62948;BME280;51940;52.126;-0.994;2022-09-01T02:03:30;101226.98;;;12.56;79.69
62948;BME280;51940;52.126;-0.994;2022-09-01T02:06:00;101226.83;;;12.55;79.93
62948;BME280;51940;52.126;-0.994;2022-09-01T02:08:28;101228.83;;;12.53;80.02
62948;BME280;51940;52.126;-0.994;2022-09-01T02:10:55;101225.51;;;12.50;80.25
62948;BME280;51940;52.126;-0.994;2022-09-01T02:13:23;101224.98;;;12.49;80.26
62948;BME280;51940;52.126;-0.994;2022-09-01T02:15:58;101226.06;;;12.49;80.34
62948;BME280;51940;52.126;-0.994;2022-09-01T02:18:45;101226.43;;;12.48;80.35
62948;BME280;51940;52.126;-0.994;2022-09-01T02:21:17;101222.86;;;12.48;80.38
62948;BME280;51940;52.126;-0.994;2022-09-01T02:23:51;101221.07;;;12.47;80.61
62948;BME280;51940;52.126;-0.994;2022-09-01T02:26:25;101219.82;;;12.47;80.67
62948;BME280;51940;52.126;-0.994;2022-09-01T02:28:56;101221.08;;;12.46;80.92
62948;BME280;51940;52.126;-0.994;2022-09-01T02:31:22;101215.73;;;12.45;81.07
62948;BME280;51940;52.126;-0.994;2022-09-01T02:33:50;101212.66;;;12.48;80.97
62948;BME280;51940;52.126;-0.994;2022-09-01T02:36:18;101213.54;;;12.49;80.91
62948;BME280;51940;52.126;-0.994;2022-09-01T02:38:46;101212.83;;;12.49;81.04
62948;BME280;51940;52.126;-0.994;2022-09-01T02:41:14;101210.31;;;12.50;81.03
62948;BME280;51940;52.126;-0.994;2022-09-01T02:43:46;101207.10;;;12.49;81.11
62948;BME280;51940;52.126;-0.994;2022-09-01T02:46:12;101207.64;;;12.48;81.10
62948;BME280;51940;52.126;-0.994;2022-09-01T02:48:41;101204.43;;;12.48;81.08
62948;BME280;51940;52.126;-0.994;2022-09-01T02:51:14;101202.44;;;12.50;81.05
62948;BME280;51940;52.126;-0.994;2022-09-01T02:53:43;101199.52;;;12.51;81.00
62948;BME280;51940;52.126;-0.994;2022-09-01T02:56:11;101193.44;;;12.52;81.07
62948;BME280;51940;52.126;-0.994;2022-09-01T02:58:42;101190.38;;;12.52;80.99
62948;BME280;51940;52.126;-0.994;2022-09-01T03:01:19;101193.39;;;12.54;81.21
62948;BME280;51940;52.126;-0.994;2022-09-01T03:04:01;101192.80;;;12.56;81.23
62948;BME280;51940;52.126;-0.994;2022-09-01T03:06:28;101189.92;;;12.57;81.40
62948;BME280;51940;52.126;-0.994;2022-09-01T03:08:59;101190.55;;;12.61;81.29
62948;BME280;51940;52.126;-0.994;2022-09-01T03:11:32;101191.52;;;12.67;81.36
62948;BME280;51940;52.126;-0.994;2022-09-01T03:13:59;101186.75;;;12.72;81.44
62948;BME280;51940;52.126;-0.994;2022-09-01T03:16:26;101186.65;;;12.77;81.30
62948;BME280;51940;52.126;-0.994;2022-09-01T03:18:52;101189.77;;;12.83;81.33
62948;BME280;51940;52.126;-0.994;2022-09-01T03:21:21;101184.44;;;12.89;81.39
62948;BME280;51940;52.126;-0.994;2022-09-01T03:23:49;101180.36;;;12.95;81.42
62948;BME280;51940;52.126;-0.994;2022-09-01T03:26:16;101180.24;;;13.02;81.29
62948;BME280;51940;52.126;-0.994;2022-09-01T03:28:45;101172.92;;;13.08;81.12
62948;BME280;51940;52.126;-0.994;2022-09-01T03:31:11;101173.90;;;13.13;81.20
62948;BME280;51940;52.126;-0.994;2022-09-01T03:33:36;101173.07;;;13.19;80.97
62948;BME280;51940;52.126;-0.994;2022-09-01T03:36:03;101172.06;;;13.25;80.94
62948;BME280;51940;52.126;-0.994;2022-09-01T03:38:29;101172.81;;;13.31;80.91
62948;BME280;51940;52.126;-0.994;2022-09-01T03:41:00;101169.30;;;13.36;80.64
62948;BME280;51940;52.126;-0.994;2022-09-01T03:43:28;101166.33;;;13.40;80.52
62948;BME280;51940;52.126;-0.994;2022-09-01T03:45:55;101165.17;;;13.44;80.67
62948;BME280;51940;52.126;-0.994;2022-09-01T03:48:24;101164.34;;;13.48;80.55
62948;BME280;51940;52.126;-0.994;2022-09-01T03:50:55;101164.29;;;13.51;80.53
62948;BME280;51940;52.126;-0.994;2022-09-01T03:53:25;101160.27;;;13.53;80.45
62948;BME280;51940;52.126;-0.994;2022-09-01T03:55:51;101165.17;;;13.58;80.42
62948;BME280;51940;52.126;-0.994;2022-09-01T03:58:19;101159.77;;;13.60;80.47
62948;BME280;51940;52.126;-0.994;2022-09-01T04:00:51;101158.59;;;13.64;80.54
62948;BME280;51940;52.126;-0.994;2022-09-01T04:03:23;101157.08;;;13.68;80.46
62948;BME280;51940;52.126;-0.994;2022-09-01T04:05:51;101151.42;;;13.71;80.42
62948;BME280;51940;52.126;-0.994;2022-09-01T04:08:18;101153.65;;;13.75;80.60
62948;BME280;51940;52.126;-0.994;2022-09-01T04:10:46;101147.13;;;13.78;80.73
62948;BME280;51940;52.126;-0.994;2022-09-01T04:13:19;101152.75;;;13.82;80.93
62948;BME280;51940;52.126;-0.994;2022-09-01T04:15:46;101147.98;;;13.86;80.89
62948;BME280;51940;52.126;-0.994;2022-09-01T04:18:12;101147.17;;;13.90;80.67
62948;BME280;51940;52.126;-0.994;2022-09-01T04:20:50;101146.21;;;13.93;80.53
62948;BME280;51940;52.126;-0.994;2022-09-01T04:25:48;101144.42;;;13.99;80.37
62948;BME280;51940;52.126;-0.994;2022-09-01T04:28:18;101140.05;;;14.02;80.24
62948;BME280;51940;52.126;-0.994;2022-09-01T04:30:53;101135.86;;;14.04;80.16
62948;BME280;51940;52.126;-0.994;2022-09-01T04:33:21;101138.49;;;14.06;80.17
62948;BME280;51940;52.126;-0.994;2022-09-01T04:35:47;101136.46;;;14.08;79.91
62948;BME280;51940;52.126;-0.994;2022-09-01T04:38:15;101133.92;;;14.10;80.10
62948;BME280;51940;52.126;-0.994;2022-09-01T04:40:41;101139.98;;;14.11;80.08
62948;BME280;51940;52.126;-0.994;2022-09-01T04:43:07;101132.94;;;14.13;80.04
62948;BME280;51940;52.126;-0.994;2022-09-01T04:45:35;101135.05;;;14.15;79.91
62948;BME280;51940;52.126;-0.994;2022-09-01T04:48:02;101128.95;;;14.15;80.01
62948;BME280;51940;52.126;-0.994;2022-09-01T04:50:28;101130.17;;;14.16;80.09
62948;BME280;51940;52.126;-0.994;2022-09-01T04:53:00;101131.76;;;14.17;80.05
62948;BME280;51940;52.126;-0.994;2022-09-01T04:55:27;101127.96;;;14.18;80.04
62948;BME280;51940;52.126;-0.994;2022-09-01T04:57:55;101123.45;;;14.19;80.23
62948;BME280;51940;52.126;-0.994;2022-09-01T05:00:23;101119.64;;;14.21;80.20
62948;BME280;51940;52.126;-0.994;2022-09-01T05:02:55;101121.76;;;14.22;80.24
62948;BME280;51940;52.126;-0.994;2022-09-01T05:05:28;101116.54;;;14.22;80.35
62948;BME280;51940;52.126;-0.994;2022-09-01T05:07:54;101110.21;;;14.24;80.16
62948;BME280;51940;52.126;-0.994;2022-09-01T05:10:20;101110.52;;;14.25;79.90
62948;BME280;51940;52.126;-0.994;2022-09-01T05:12:47;101115.15;;;14.27;79.90
62948;BME280;51940;52.126;-0.994;2022-09-01T05:15:14;101114.79;;;14.27;80.04
62948;BME280;51940;52.126;-0.994;2022-09-01T05:17:42;101118.91;;;14.27;79.94
62948;BME280;51940;52.126;-0.994;2022-09-01T05:20:09;101120.16;;;14.28;79.95
62948;BME280;51940;52.126;-0.994;2022-09-01T05:22:36;101114.76;;;14.29;79.78
62948;BME280;51940;52.126;-0.994;2022-09-01T05:25:07;101115.08;;;14.30;79.74
62948;BME280;51940;52.126;-0.994;2022-09-01T05:27:41;101117.89;;;14.32;79.75
62948;BME280;51940;52.126;-0.994;2022-09-01T05:30:14;101117.84;;;14.33;79.74
62948;BME280;51940;52.126;-0.994;2022-09-01T05:32:41;101119.23;;;14.34;79.76
62948;BME280;51940;52.126;-0.994;2022-09-01T05:35:08;101117.25;;;14.35;79.80
62948;BME280;51940;52.126;-0.994;2022-09-01T05:37:35;101120.77;;;14.38;79.62
62948;BME280;51940;52.126;-0.994;2022-09-01T05:40:04;101118.00;;;14.40;79.50
62948;BME280;51940;52.126;-0.994;2022-09-01T05:42:29;101119.35;;;14.44;79.49
62948;BME280;51940;52.126;-0.994;2022-09-01T05:44:56;101117.49;;;14.47;79.35
62948;BME280;51940;52.126;-0.994;2022-09-01T05:47:22;101115.58;;;14.51;79.14
62948;BME280;51940;52.126;-0.994;2022-09-01T05:49:50;101117.37;;;14.57;79.11
62948;BME280;51940;52.126;-0.994;2022-09-01T05:52:18;101117.60;;;14.62;78.99
62948;BME280;51940;52.126;-0.994;2022-09-01T05:54:49;101121.42;;;14.66;78.62
62948;BME280;51940;52.126;-0.994;2022-09-01T05:57:16;101117.20;;;14.70;78.59
62948;BME280;51940;52.126;-0.994;2022-09-01T05:59:44;101120.52;;;14.73;78.50
62948;BME280;51940;52.126;-0.994;2022-09-01T06:02:14;101123.76;;;14.73;78.48
62948;BME280;51940;52.126;-0.994;2022-09-01T06:04:40;101125.75;;;14.72;78.48
62948;BME280;51940;52.126;-0.994;2022-09-01T06:07:06;101127.40;;;14.71;78.40
62948;BME280;51940;52.126;-0.994;2022-09-01T06:09:42;101123.67;;;14.68;78.46
62948;BME280;51940;52.126;-0.994;2022-09-01T06:12:09;101123.00;;;14.67;78.46
62948;BME280;51940;52.126;-0.994;2022-09-01T06:14:51;101121.61;;;14.66;78.55
62948;BME280;51940;52.126;-0.994;2022-09-01T06:17:18;101118.73;;;14.66;78.50
62948;BME280;51940;52.126;-0.994;2022-09-01T06:19:47;101116.20;;;14.66;78.55
62948;BME280;51940;52.126;-0.994;2022-09-01T06:22:13;101119.56;;;14.68;78.37
62948;BME280;51940;52.126;-0.994;2022-09-01T06:24:39;101118.77;;;14.71;78.38
62948;BME280;51940;52.126;-0.994;2022-09-01T06:27:08;101117.58;;;14.75;78.20
62948;BME280;51940;52.126;-0.994;2022-09-01T06:29:36;101111.36;;;14.79;78.21
62948;BME280;51940;52.126;-0.994;2022-09-01T06:32:05;101114.41;;;14.84;78.05
62948;BME280;51940;52.126;-0.994;2022-09-01T06:34:34;101116.98;;;14.89;77.87
62948;BME280;51940;52.126;-0.994;2022-09-01T06:37:00;101116.65;;;14.93;77.66
62948;BME280;51940;52.126;-0.994;2022-09-01T06:39:26;101113.65;;;14.98;77.53
62948;BME280;51940;52.126;-0.994;2022-09-01T06:41:51;101108.27;;;15.03;77.35
62948;BME280;51940;52.126;-0.994;2022-09-01T06:44:18;101114.13;;;15.11;77.07
62948;BME280;51940;52.126;-0.994;2022-09-01T06:46:51;101117.30;;;15.19;76.85
62948;BME280;51940;52.126;-0.994;2022-09-01T06:49:17;101114.52;;;15.22;76.67
62948;BME280;51940;52.126;-0.994;2022-09-01T06:51:43;101112.62;;;15.25;76.54
62948;BME280;51940;52.126;-0.994;2022-09-01T06:54:16;101117.02;;;15.28;76.50
62948;BME280;51940;52.126;-0.994;2022-09-01T06:56:44;101113.95;;;15.28;76.25
62948;BME280;51940;52.126;-0.994;2022-09-01T06:59:11;101112.84;;;15.30;76.19
62948;BME280;51940;52.126;-0.994;2022-09-01T07:01:40;101110.16;;;15.34;76.28
62948;BME280;51940;52.126;-0.994;2022-09-01T07:04:06;101114.30;;;15.40;76.06
62948;BME280;51940;52.126;-0.994;2022-09-01T07:06:32;101112.20;;;15.43;75.72
62948;BME280;51940;52.126;-0.994;2022-09-01T07:09:00;101114.53;;;15.49;75.83
62948;BME280;51940;52.126;-0.994;2022-09-01T07:11:28;101119.91;;;15.55;75.63
62948;BME280;51940;52.126;-0.994;2022-09-01T07:13:58;101115.41;;;15.61;75.34
62948;BME280;51940;52.126;-0.994;2022-09-01T07:16:27;101114.73;;;15.66;75.10
62948;BME280;51940;52.126;-0.994;2022-09-01T07:18:55;101118.63;;;15.73;74.90
62948;BME280;51940;52.126;-0.994;2022-09-01T07:21:23;101118.20;;;15.80;74.71
62948;BME280;51940;52.126;-0.994;2022-09-01T07:23:50;101118.94;;;15.90;74.25
62948;BME280;51940;52.126;-0.994;2022-09-01T07:26:16;101125.48;;;16.03;73.99
62948;BME280;51940;52.126;-0.994;2022-09-01T07:28:48;101120.95;;;16.20;73.45
62948;BME280;51940;52.126;-0.994;2022-09-01T07:31:20;101112.14;;;16.35;73.04
62948;BME280;51940;52.126;-0.994;2022-09-01T07:33:47;101114.02;;;16.52;72.80
62948;BME280;51940;52.126;-0.994;2022-09-01T07:36:14;101118.56;;;16.70;72.44
62948;BME280;51940;52.126;-0.994;2022-09-01T07:38:40;101117.15;;;16.84;71.92
62948;BME280;51940;52.126;-0.994;2022-09-01T07:41:08;101119.34;;;16.98;71.50
62948;BME280;51940;52.126;-0.994;2022-09-01T07:43:37;101120.23;;;17.11;70.85
62948;BME280;51940;52.126;-0.994;2022-09-01T07:46:06;101119.81;;;17.22;70.25
62948;BME280;51940;52.126;-0.994;2022-09-01T07:48:32;101118.63;;;17.29;69.79
62948;BME280;51940;52.126;-0.994;2022-09-01T07:50:58;101119.48;;;17.35;69.42
62948;BME280;51940;52.126;-0.994;2022-09-01T07:53:29;101113.52;;;17.43;69.31
62948;BME280;51940;52.126;-0.994;2022-09-01T07:55:58;101110.92;;;17.54;69.18
62948;BME280;51940;52.126;-0.994;2022-09-01T07:58:27;101108.80;;;17.62;68.82
62948;BME280;51940;52.126;-0.994;2022-09-01T08:00:54;101110.35;;;17.68;68.29
62948;BME280;51940;52.126;-0.994;2022-09-01T08:03:22;101110.48;;;17.70;68.26
62948;BME280;51940;52.126;-0.994;2022-09-01T08:05:49;101105.52;;;17.72;67.96
62948;BME280;51940;52.126;-0.994;2022-09-01T08:08:19;101110.48;;;17.83;68.10
62948;BME280;51940;52.126;-0.994;2022-09-01T08:10:45;101111.88;;;17.92;67.74
62948;BME280;51940;52.126;-0.994;2022-09-01T08:13:11;101113.72;;;17.96;67.30
62948;BME280;51940;52.126;-0.994;2022-09-01T08:15:38;101107.81;;;17.98;67.55
62948;BME280;51940;52.126;-0.994;2022-09-01T08:18:04;101104.23;;;18.02;67.38
62948;BME280;51940;52.126;-0.994;2022-09-01T08:20:30;101098.85;;;18.06;67.19
62948;BME280;51940;52.126;-0.994;2022-09-01T08:22:59;101097.82;;;18.08;67.40
62948;BME280;51940;52.126;-0.994;2022-09-01T08:25:25;101100.09;;;18.14;67.22
62948;BME280;51940;52.126;-0.994;2022-09-01T08:27:51;101100.94;;;18.19;67.03
62948;BME280;51940;52.126;-0.994;2022-09-01T08:30:17;101098.82;;;18.26;67.00
62948;BME280;51940;52.126;-0.994;2022-09-01T08:32:43;101102.55;;;18.36;66.78
62948;BME280;51940;52.126;-0.994;2022-09-01T08:35:12;101102.14;;;18.41;66.36
62948;BME280;51940;52.126;-0.994;2022-09-01T08:37:41;101106.36;;;18.47;65.95
62948;BME280;51940;52.126;-0.994;2022-09-01T08:40:08;101100.94;;;18.55;66.13
62948;BME280;51940;52.126;-0.994;2022-09-01T08:45:51;101099.33;;;18.79;65.10
62948;BME280;51940;52.126;-0.994;2022-09-01T08:57:04;101097.89;;;18.91;63.74
62948;BME280;51940;52.126;-0.994;2022-09-01T08:59:29;101094.97;;;18.95;63.51
62948;BME280;51940;52.126;-0.994;2022-09-01T09:07:02;101093.20;;;18.94;62.32
62948;BME280;51940;52.126;-0.994;2022-09-01T09:09:39;101087.91;;;18.95;62.80
62948;BME280;51940;52.126;-0.994;2022-09-01T09:12:25;101089.27;;;19.04;62.81
62948;BME280;51940;52.126;-0.994;2022-09-01T09:15:13;101088.67;;;19.16;62.31
62948;BME280;51940;52.126;-0.994;2022-09-01T09:17:46;101089.56;;;19.28;61.86
62948;BME280;51940;52.126;-0.994;2022-09-01T09:20:13;101096.39;;;19.36;61.40
62948;BME280;51940;52.126;-0.994;2022-09-01T09:22:39;101090.60;;;19.43;61.36
62948;BME280;51940;52.126;-0.994;2022-09-01T09:25:08;101082.71;;;19.49;61.01
62948;BME280;51940;52.126;-0.994;2022-09-01T09:27:37;101083.50;;;19.59;61.14
62948;BME280;51940;52.126;-0.994;2022-09-01T09:30:12;101079.55;;;19.66;60.79
62948;BME280;51940;52.126;-0.994;2022-09-01T09:35:20;101081.67;;;19.78;60.12
62948;BME280;51940;52.126;-0.994;2022-09-01T09:37:46;101073.35;;;19.84;59.51
62948;BME280;51940;52.126;-0.994;2022-09-01T09:40:14;101072.42;;;20.02;59.31
62948;BME280;51940;52.126;-0.994;2022-09-01T09:47:56;101072.05;;;20.60;57.09
62948;BME280;51940;52.126;-0.994;2022-09-01T09:50:31;101067.44;;;20.71;57.22
62948;BME280;51940;52.126;-0.994;2022-09-01T09:55:35;101068.30;;;20.85;54.97
62948;BME280;51940;52.126;-0.994;2022-09-01T09:58:09;101063.97;;;20.81;55.39
62948;BME280;51940;52.126;-0.994;2022-09-01T10:00:36;101066.27;;;20.86;55.13
62948;BME280;51940;52.126;-0.994;2022-09-01T10:03:03;101059.73;;;20.90;55.11
62948;BME280;51940;52.126;-0.994;2022-09-01T10:05:48;101053.73;;;20.90;54.70
62948;BME280;51940;52.126;-0.994;2022-09-01T10:08:41;101054.84;;;20.93;54.73
62948;BME280;51940;52.126;-0.994;2022-09-01T10:11:38;101062.45;;;20.96;53.85
62948;BME280;51940;52.126;-0.994;2022-09-01T10:14:52;101054.59;;;20.97;53.73
62948;BME280;51940;52.126;-0.994;2022-09-01T10:16:56;101054.95;;;20.94;53.00
62948;BME280;51940;52.126;-0.994;2022-09-01T10:19:25;101051.85;;;20.94;52.87
62948;BME280;51940;52.126;-0.994;2022-09-01T10:21:53;101044.95;;;21.00;53.53
62948;BME280;51940;52.126;-0.994;2022-09-01T10:24:31;101038.48;;;21.09;53.38
62948;BME280;51940;52.126;-0.994;2022-09-01T10:27:06;101038.80;;;21.22;53.22
62948;BME280;51940;52.126;-0.994;2022-09-01T10:32:18;101026.92;;;21.49;52.10
62948;BME280;51940;52.126;-0.994;2022-09-01T10:34:45;101029.86;;;21.60;51.51
62948;BME280;51940;52.126;-0.994;2022-09-01T10:37:11;101025.10;;;21.64;51.06
62948;BME280;51940;52.126;-0.994;2022-09-01T10:42:46;101023.36;;;21.83;50.11
62948;BME280;51940;52.126;-0.994;2022-09-01T10:45:29;101021.80;;;22.00;50.34
62948;BME280;51940;52.126;-0.994;2022-09-01T10:56:07;101020.20;;;22.06;47.99
62948;BME280;51940;52.126;-0.994;2022-09-01T11:04:21;101005.15;;;22.08;48.26
62948;BME280;51940;52.126;-0.994;2022-09-01T11:11:49;101000.96;;;22.52;47.08
62948;BME280;51940;52.126;-0.994;2022-09-01T11:14:20;100997.20;;;22.62;45.86
62948;BME280;51940;52.126;-0.994;2022-09-01T11:20:05;100989.44;;;22.72;44.93
62948;BME280;51940;52.126;-0.994;2022-09-01T11:25:06;100990.67;;;22.73;44.01
62948;BME280;51940;52.126;-0.994;2022-09-01T11:27:56;100986.16;;;22.64;44.36
62948;BME280;51940;52.126;-0.994;2022-09-01T11:30:33;100979.80;;;22.64;44.43
62948;BME280;51940;52.126;-0.994;2022-09-01T11:38:51;100980.23;;;22.77;43.94
62948;BME280;51940;52.126;-0.994;2022-09-01T11:46:49;100971.83;;;22.94;42.67
62948;BME280;51940;52.126;-0.994;2022-09-01T11:49:31;100965.68;;;23.04;43.06
62948;BME280;51940;52.126;-0.994;2022-09-01T11:51:58;100966.05;;;23.16;42.77
62948;BME280;51940;52.126;-0.994;2022-09-01T11:54:25;100968.91;;;23.21;42.38
62948;BME280;51940;52.126;-0.994;2022-09-01T11:56:52;100964.08;;;23.20;42.36
62948;BME280;51940;52.126;-0.994;2022-09-01T11:59:32;100961.93;;;23.25;42.39
62948;BME280;51940;52.126;-0.994;2022-09-01T12:01:59;100957.16;;;23.28;41.64
62948;BME280;51940;52.126;-0.994;2022-09-01T12:04:33;100954.04;;;23.29;42.19
62948;BME280;51940;52.126;-0.994;2022-09-01T12:07:22;100953.64;;;23.27;41.20
62948;BME280;51940;52.126;-0.994;2022-09-01T12:09:49;100958.95;;;23.21;40.29
62948;BME280;51940;52.126;-0.994;2022-09-01T12:12:34;100951.84;;;23.16;40.58
62948;BME280;51940;52.126;-0.994;2022-09-01T12:15:26;100949.10;;;23.13;40.54
62948;BME280;51940;52.126;-0.994;2022-09-01T12:18:14;100940.63;;;23.17;41.16
62948;BME280;51940;52.126;-0.994;2022-09-01T12:20:44;100939.69;;;23.31;41.54
62948;BME280;51940;52.126;-0.994;2022-09-01T12:23:30;100941.27;;;23.42;41.06
62948;BME280;51940;52.126;-0.994;2022-09-01T12:26:04;100940.38;;;23.52;40.57
62948;BME280;51940;52.126;-0.994;2022-09-01T12:28:32;100930.87;;;23.67;40.96
62948;BME280;51940;52.126;-0.994;2022-09-01T12:31:12;100931.56;;;23.72;40.29
62948;BME280;51940;52.126;-0.994;2022-09-01T12:33:38;100940.36;;;23.69;39.25
62948;BME280;51940;52.126;-0.994;2022-09-01T12:36:35;100939.99;;;23.61;39.22
62948;BME280;51940;52.126;-0.994;2022-09-01T12:39:21;100933.20;;;23.67;39.39
62948;BME280;51940;52.126;-0.994;2022-09-01T12:42:09;100931.27;;;23.71;38.96
62948;BME280;51940;52.126;-0.994;2022-09-01T12:47:13;100926.72;;;23.69;39.29
62948;BME280;51940;52.126;-0.994;2022-09-01T12:49:46;100923.44;;;23.69;39.42
62948;BME280;51940;52.126;-0.994;2022-09-01T12:52:19;100926.38;;;23.69;39.19
62948;BME280;51940;52.126;-0.994;2022-09-01T12:57:31;100915.16;;;23.67;39.31
62948;BME280;51940;52.126;-0.994;2022-09-01T13:02:46;100907.36;;;23.67;39.14
62948;BME280;51940;52.126;-0.994;2022-09-01T13:07:56;100912.73;;;23.73;38.97
62948;BME280;51940;52.126;-0.994;2022-09-01T13:10:27;100905.43;;;23.73;38.68
62948;BME280;51940;52.126;-0.994;2022-09-01T13:12:55;100902.90;;;23.78;38.61
62948;BME280;51940;52.126;-0.994;2022-09-01T13:15:23;100896.38;;;23.85;38.68
62948;BME280;51940;52.126;-0.994;2022-09-01T13:17:50;100898.45;;;23.95;38.42
62948;BME280;51940;52.126;-0.994;2022-09-01T13:20:15;100894.80;;;24.02;38.41
62948;BME280;51940;52.126;-0.994;2022-09-01T13:22:41;100894.20;;;24.10;38.17
62948;BME280;51940;52.126;-0.994;2022-09-01T13:25:10;100894.54;;;24.18;37.92
62948;BME280;51940;52.126;-0.994;2022-09-01T13:27:38;100892.52;;;24.18;38.05
62948;BME280;51940;52.126;-0.994;2022-09-01T13:30:07;100895.95;;;24.22;38.11
62948;BME280;51940;52.126;-0.994;2022-09-01T13:32:33;100899.65;;;24.21;37.89
62948;BME280;51940;52.126;-0.994;2022-09-01T13:34:58;100891.56;;;24.16;37.77
62948;BME280;51940;52.126;-0.994;2022-09-01T13:37:24;100887.64;;;24.13;37.78
62948;BME280;51940;52.126;-0.994;2022-09-01T13:39:49;100886.67;;;24.11;37.86
62948;BME280;51940;52.126;-0.994;2022-09-01T13:42:16;100885.47;;;24.10;37.55
62948;BME280;51940;52.126;-0.994;2022-09-01T13:44:42;100880.14;;;24.08;37.76
62948;BME280;51940;52.126;-0.994;2022-09-01T13:47:08;100873.17;;;24.09;38.12
62948;BME280;51940;52.126;-0.994;2022-09-01T13:49:33;100872.52;;;24.10;37.74
62948;BME280;51940;52.126;-0.994;2022-09-01T13:51:58;100868.85;;;24.06;37.12
62948;BME280;51940;52.126;-0.994;2022-09-01T13:54:24;100868.94;;;23.99;37.59
62948;BME280;51940;52.126;-0.994;2022-09-01T13:56:49;100861.23;;;23.92;37.83
62948;BME280;51940;52.126;-0.994;2022-09-01T13:59:16;100860.33;;;23.87;38.15
62948;BME280;51940;52.126;-0.994;2022-09-01T14:01:41;100856.91;;;23.82;38.15
62948;BME280;51940;52.126;-0.994;2022-09-01T14:04:07;100854.79;;;23.74;38.18
62948;BME280;51940;52.126;-0.994;2022-09-01T14:06:41;100858.61;;;23.63;38.46
62948;BME280;51940;52.126;-0.994;2022-09-01T14:09:13;100858.94;;;23.53;38.33
62948;BME280;51940;52.126;-0.994;2022-09-01T14:11:39;100856.89;;;23.44;38.51
62948;BME280;51940;52.126;-0.994;2022-09-01T14:14:05;100857.69;;;23.40;38.81
62948;BME280;51940;52.126;-0.994;2022-09-01T14:16:31;100854.93;;;23.35;38.59